Time;durP1;ratioP1;P1;durP2;ratioP2;P2;SDS_P1;SDS_P2;PMS_P1;PMS_P2;Temp;Humidity;BMP_temperature;BMP_pressure;BME280_temperature;BME280_humidity;BME280_pressure;Samples;Min_cycle;Max_cycle;Signal;HPM_P1;HPM_P2
2023/05/11 00:02:54;;;;;;;19.65;11.90;;;;;;;12.78;100.00;100511.19;6258989;28;20472;-96
2023/05/11 00:05:57;;;;;;;23.15;11.43;;;;;;;12.78;100.00;100516.38;6266722;28;20124;-95
2023/05/11 00:08:59;;;;;;;17.00;10.75;;;;;;;12.79;100.00;100515.41;6251751;28;20037;-95
2023/05/11 00:12:02;;;;;;;17.42;10.45;;;;;;;12.76;100.00;100511.31;6244492;28;20356;-96
2023/05/11 00:15:06;;;;;;;18.67;11.73;;;;;;;12.77;100.00;100512.13;6251369;28;20056;-96
2023/05/11 00:18:09;;;;;;;20.25;11.98;;;;;;;12.76;100.00;100513.91;6240472;28;20306;-96
2023/05/11 00:21:11;;;;;;;21.48;12.82;;;;;;;12.78;100.00;100513.78;6257945;28;20071;-96
2023/05/11 00:24:13;;;;;;;18.30;12.55;;;;;;;12.79;100.00;100516.22;6238062;28;20045;-95
2023/05/11 00:27:16;;;;;;;17.30;11.18;;;;;;;12.83;100.00;100509.81;6236620;28;20171;-95
2023/05/11 00:30:18;;;;;;;19.17;12.00;;;;;;;12.86;100.00;100512.13;6250071;28;20041;-96
2023/05/11 00:33:20;;;;;;;20.42;11.45;;;;;;;12.87;100.00;100516.38;6236262;28;20610;-96
2023/05/11 00:36:23;;;;;;;20.67;13.13;;;;;;;12.84;100.00;100508.84;6259385;28;20048;-95
2023/05/11 00:39:25;;;;;;;19.50;12.85;;;;;;;12.86;100.00;100511.31;6256971;28;20044;-95
2023/05/11 00:42:28;;;;;;;16.90;11.95;;;;;;;12.87;100.00;100516.38;6243140;28;20041;-96
2023/05/11 00:45:30;;;;;;;18.85;11.65;;;;;;;12.87;100.00;100516.38;6223294;28;20053;-95
2023/05/11 00:48:33;;;;;;;25.85;12.95;;;;;;;12.92;100.00;100513.38;6264460;28;20180;-95
2023/05/11 00:51:36;;;;;;;30.52;14.57;;;;;;;12.89;100.00;100513.63;6251070;28;20423;-95
2023/05/11 00:54:40;;;;;;;26.52;14.63;;;;;;;12.90;100.00;100517.88;6255762;28;20126;-95
2023/05/11 00:57:42;;;;;;;26.88;14.50;;;;;;;12.91;100.00;100514.31;6255455;28;20045;-95
2023/05/11 01:00:46;;;;;;;27.58;15.93;;;;;;;12.91;100.00;100515.13;6261932;28;20041;-95
2023/05/11 01:03:48;;;;;;;28.83;15.43;;;;;;;12.94;100.00;100521.84;6240126;28;20044;-95
2023/05/11 01:07:05;;;;;;;29.40;16.50;;;;;;;12.93;100.00;100530.59;6256907;28;20099;-94
2023/05/11 01:10:33;;;;;;;20.13;13.40;;;;;;;12.91;100.00;100524.72;6254255;28;20567;-95
2023/05/11 01:13:38;;;;;;;20.13;13.13;;;;;;;12.88;100.00;100519.81;6243982;28;20122;-95
2023/05/11 01:16:46;;;;;;;18.25;12.05;;;;;;;12.86;100.00;100519.91;6244814;28;20131;-96
2023/05/11 01:20:04;;;;;;;19.38;12.10;;;;;;;12.82;100.00;100515.13;6240506;28;20054;-95
2023/05/11 01:23:36;;;;;;;16.15;10.63;;;;;;;12.83;100.00;100519.38;6255773;28;20620;-95
2023/05/11 01:27:10;;;;;;;18.25;11.05;;;;;;;12.82;100.00;100525.53;6234918;28;20053;-95
2023/05/11 01:30:35;;;;;;;16.90;11.45;;;;;;;12.78;100.00;100518.97;6230854;28;20380;-95
2023/05/11 01:33:43;;;;;;;19.40;12.43;;;;;;;12.75;100.00;100529.66;6257930;28;20029;-96
2023/05/11 01:37:12;;;;;;;20.27;11.98;;;;;;;12.75;100.00;100532.25;6257621;28;20072;-95
2023/05/11 01:40:24;;;;;;;19.90;12.20;;;;;;;12.76;100.00;100528.69;6233325;28;20045;-94
2023/05/11 01:43:29;;;;;;;22.65;12.52;;;;;;;12.74;100.00;100531.41;6243364;28;20041;-94
2023/05/11 01:46:32;;;;;;;18.83;12.13;;;;;;;12.72;100.00;100522.94;6256187;28;20124;-95
2023/05/11 01:49:37;;;;;;;16.13;10.63;;;;;;;12.69;100.00;100529.22;6228651;28;20041;-94
2023/05/11 01:52:41;;;;;;;13.02;8.65;;;;;;;12.66;100.00;100533.84;6241651;28;20420;-95
2023/05/11 01:55:46;;;;;;;12.82;7.95;;;;;;;12.62;100.00;100522.94;6242383;28;20762;-95
2023/05/11 01:58:50;;;;;;;12.30;8.00;;;;;;;12.59;100.00;100530.97;6250895;28;20036;-95
2023/05/11 02:01:53;;;;;;;20.50;7.65;;;;;;;12.49;100.00;100530.13;6248730;28;20040;-94
2023/05/11 02:04:58;;;;;;;10.45;6.20;;;;;;;12.43;100.00;100525.47;6243785;28;20033;-94
2023/05/11 02:08:03;;;;;;;9.70;6.10;;;;;;;12.38;100.00;100520.69;6234943;28;20045;-94
2023/05/11 02:11:09;;;;;;;8.32;5.50;;;;;;;12.36;100.00;100532.16;6249384;28;20612;-95
2023/05/11 02:14:17;;;;;;;7.53;5.38;;;;;;;12.32;100.00;100533.38;6258360;28;20068;-95
2023/05/11 02:17:21;;;;;;;9.13;5.78;;;;;;;12.31;100.00;100529.13;6234026;28;20072;-94
2023/05/11 02:20:24;;;;;;;7.95;5.68;;;;;;;12.29;100.00;100532.66;6244906;28;20053;-94
2023/05/11 02:23:27;;;;;;;7.57;4.93;;;;;;;12.32;100.00;100530.78;6253858;28;20063;-94
2023/05/11 02:26:28;;;;;;;7.68;5.07;;;;;;;12.27;100.00;100534.59;6246531;28;20154;-94
2023/05/11 02:29:31;;;;;;;8.27;5.35;;;;;;;12.31;100.00;100532.56;6250768;28;20158;-94
2023/05/11 02:32:36;;;;;;;8.65;6.00;;;;;;;12.33;100.00;100538.44;6236304;28;20041;-94
2023/05/11 02:35:42;;;;;;;7.97;5.75;;;;;;;12.36;100.00;100537.34;6252520;28;20040;-93
2023/05/11 02:38:47;;;;;;;8.88;6.00;;;;;;;12.36;100.00;100537.34;6245757;28;20047;-94
2023/05/11 02:41:55;;;;;;;10.82;7.03;;;;;;;12.36;100.00;100537.34;6250924;28;20545;-95
2023/05/11 02:45:04;;;;;;;9.07;6.45;;;;;;;12.33;100.00;100541.03;6252285;28;20053;-94
2023/05/11 02:48:16;;;;;;;10.43;6.15;;;;;;;12.33;100.00;100530.66;6249682;28;20107;-95
2023/05/11 02:51:21;;;;;;;;;;;;;;;12.34;100.00;100534.06;6248328;28;20143;-94
2023/05/11 02:54:27;;;;;;;10.07;6.78;;;;;;;12.34;100.00;100537.47;6252899;28;20074;-94
2023/05/11 02:57:30;;;;;;;9.40;7.18;;;;;;;12.32;100.00;100541.16;6252960;28;20395;-94
2023/05/11 03:00:38;;;;;;;9.95;7.10;;;;;;;12.34;100.00;100540.06;6258905;28;20178;-94
2023/05/11 03:03:46;;;;;;;9.65;6.78;;;;;;;12.34;100.00;100539.25;6259524;28;20493;-94
2023/05/11 03:06:49;;;;;;;11.63;6.75;;;;;;;12.35;100.00;100538.31;6256439;28;20124;-94
2023/05/11 03:09:52;;;;;;;10.18;6.32;;;;;;;12.32;100.00;100539.38;6248182;28;20507;-93
2023/05/11 03:12:55;;;;;;;12.20;6.93;;;;;;;12.31;100.00;100537.75;6263028;28;20637;-94
2023/05/11 03:16:01;;;;;;;8.85;6.63;;;;;;;12.33;100.00;100542.81;6261118;28;20049;-94
2023/05/11 03:19:07;;;;;;;9.35;6.85;;;;;;;12.34;100.00;100541.84;6249253;28;20400;-94
2023/05/11 03:22:10;;;;;;;8.02;6.07;;;;;;;12.36;100.00;100542.53;6259464;28;20049;-94
2023/05/11 03:25:14;;;;;;;9.90;6.50;;;;;;;12.37;100.00;100550.22;6241647;28;20045;-93
2023/05/11 03:28:18;;;;;;;7.55;5.90;;;;;;;12.35;100.00;100546.09;6260074;28;20037;-94
2023/05/11 03:31:29;;;;;;;9.02;6.63;;;;;;;12.39;100.00;100547.47;6241729;28;20404;-94
2023/05/11 03:34:33;;;;;;;10.15;6.10;;;;;;;12.37;100.00;100539.81;6248227;28;20138;-93
2023/05/11 03:37:37;;;;;;;9.93;7.15;;;;;;;12.40;100.00;100547.34;6247502;28;20051;-93
2023/05/11 03:40:42;;;;;;;9.07;6.72;;;;;;;12.41;100.00;100542.97;6236284;28;20119;-93
2023/05/11 03:43:48;;;;;;;8.43;6.90;;;;;;;12.37;100.00;100541.56;6248446;28;20040;-93
2023/05/11 03:46:54;;;;;;;10.90;7.15;;;;;;;12.34;100.00;100536.66;6255373;28;20553;-93
2023/05/11 03:49:57;;;;;;;9.75;6.80;;;;;;;12.35;100.00;100528.75;6247331;28;20048;-93
2023/05/11 03:53:00;;;;;;;12.10;8.15;;;;;;;12.32;100.00;100530.78;6260096;28;20053;-93
2023/05/11 03:56:03;;;;;;;9.88;7.00;;;;;;;12.33;100.00;100538.44;6237329;28;20344;-94
2023/05/11 03:59:05;;;;;;;10.05;7.47;;;;;;;12.33;100.00;100532.44;6247773;28;20049;-93
2023/05/11 04:02:07;;;;;;;10.55;7.03;;;;;;;12.35;100.00;100530.53;6261980;28;20052;-93
2023/05/11 04:05:10;;;;;;;9.30;6.90;;;;;;;12.36;100.00;100532.97;6261150;28;20037;-93
2023/05/11 04:08:13;;;;;;;9.00;6.80;;;;;;;12.35;100.00;100531.34;6247347;28;20063;-92
2023/05/11 04:11:15;;;;;;;9.82;6.57;;;;;;;12.37;100.00;100533.78;6256566;28;20126;-93
2023/05/11 04:14:19;;;;;;;9.07;7.00;;;;;;;12.37;100.00;100533.78;6264292;28;20068;-92
2023/05/11 04:17:21;;;;;;;9.48;6.72;;;;;;;12.40;100.00;100531.75;6246473;28;20048;-92
2023/05/11 04:20:23;;;;;;;9.35;6.68;;;;;;;12.40;100.00;100529.16;6242252;28;21177;-92
2023/05/11 04:23:25;;;;;;;10.13;6.57;;;;;;;12.45;100.00;100526.19;6256709;28;20405;-92
2023/05/11 04:26:29;;;;;;;7.97;6.10;;;;;;;12.47;100.00;100534.63;6236980;28;20160;-92
2023/05/11 04:29:30;;;;;;;8.68;6.25;;;;;;;12.52;100.00;100532.47;6238915;28;20049;-92
2023/05/11 04:32:32;;;;;;;9.20;6.03;;;;;;;12.53;100.00;100528.09;6224090;28;20053;-92
2023/05/11 04:35:38;;;;;;;8.98;5.93;;;;;;;12.50;100.00;100530.00;6243383;28;20556;-92
2023/05/11 04:38:40;;;;;;;8.85;5.75;;;;;;;12.49;100.00;100532.72;6258481;28;20071;-92
2023/05/11 04:41:43;;;;;;;7.72;5.85;;;;;;;12.50;100.00;100531.78;6254947;28;20470;-91
2023/05/11 04:44:48;;;;;;;6.55;5.22;;;;;;;12.53;100.00;100535.88;6259784;28;20113;-92
2023/05/11 04:47:52;;;;;;;7.93;5.70;;;;;;;12.57;100.00;100532.91;6239467;28;20045;-92
2023/05/11 04:50:55;;;;;;;8.15;6.25;;;;;;;12.60;100.00;100537.00;6242741;28;20033;-91
2023/05/11 04:54:02;;;;;;;9.15;6.60;;;;;;;12.68;100.00;100537.16;6235575;28;20065;-91
2023/05/11 04:57:04;;;;;;;8.38;5.95;;;;;;;12.67;100.00;100536.34;6252682;28;20550;-92
2023/05/11 05:00:07;;;;;;;6.93;5.80;;;;;;;12.70;100.00;100535.25;6260822;28;20423;-92
2023/05/11 05:03:09;;;;;;;7.72;6.18;;;;;;;12.78;100.00;100535.38;6249838;28;20041;-91
2023/05/11 05:06:11;;;;;;;6.65;5.70;;;;;;;12.80;100.00;100537.84;6241577;28;20037;-92
2023/05/11 05:09:13;;;;;;;7.65;5.68;;;;;;;12.84;100.00;100531.41;6246815;28;20052;-92
2023/05/11 05:12:15;;;;;;;7.43;5.82;;;;;;;12.93;100.00;100535.81;6256922;28;20242;-92
2023/05/11 05:15:17;;;;;;;7.18;5.75;;;;;;;12.98;100.00;100531.00;6254101;28;20512;-92
2023/05/11 05:18:19;;;;;;;7.03;5.93;;;;;;;13.03;100.00;100522.81;6248089;28;20098;-92
2023/05/11 05:21:21;;;;;;;7.70;5.90;;;;;;;13.10;100.00;100521.31;6251882;28;20534;-93
2023/05/11 05:24:23;;;;;;;7.93;5.72;;;;;;;13.20;100.00;100516.91;6246936;28;20520;-92
2023/05/11 05:27:25;;;;;;;6.28;5.57;;;;;;;13.30;100.00;100516.94;6259463;28;20083;-93
2023/05/11 05:30:29;;;;;;;7.85;6.22;;;;;;;13.40;100.00;100512.53;6256751;28;20076;-92
2023/05/11 05:33:33;;;;;;;7.85;6.20;;;;;;;13.47;100.00;100516.22;6250037;28;20514;-92
2023/05/11 05:36:35;;;;;;;9.70;6.68;;;;;;;13.50;100.00;100513.34;6254799;28;20033;-92
2023/05/11 05:39:40;;;;;;;9.98;7.30;;;;;;;13.55;100.00;100518.94;6253695;28;20416;-92
2023/05/11 05:42:43;;;;;;;14.68;7.75;;;;;;;13.55;100.00;100520.72;6252941;28;20174;-93
2023/05/11 05:45:49;;;;;;;8.82;6.32;;;;;;;13.54;100.00;100519.09;6257284;28;20179;-93
2023/05/11 05:48:52;;;;;;;7.93;6.78;;;;;;;13.48;100.00;100525.66;6259687;28;20472;-92
2023/05/11 05:51:55;;;;;;;7.45;6.28;;;;;;;13.44;100.00;100528.66;6258185;28;20056;-92
2023/05/11 05:55:01;;;;;;;8.20;6.78;;;;;;;13.41;100.00;100534.16;6259335;28;20048;-92
2023/05/11 05:58:03;;;;;;;9.65;7.35;;;;;;;13.39;100.00;100533.47;6259496;28;20514;-91
2023/05/11 06:01:06;;;;;;;9.07;7.20;;;;;;;13.32;100.00;100544.44;6258926;28;20090;-91
2023/05/11 06:04:08;;;;;;;9.15;7.35;;;;;;;13.26;100.00;100538.94;6247536;28;20116;-91
2023/05/11 06:07:10;;;;;;;11.48;8.48;;;;;;;13.25;100.00;100551.13;6244364;28;20042;-93
2023/05/11 06:10:12;;;;;;;11.18;8.40;;;;;;;13.27;100.00;100551.03;6256815;28;20048;-93
2023/05/11 06:13:14;;;;;;;12.70;9.50;;;;;;;13.23;100.00;100552.22;6245578;28;20357;-92
2023/05/11 06:16:17;;;;;;;12.63;8.40;;;;;;;13.18;100.00;100550.03;6257859;28;20061;-93
2023/05/11 06:19:20;;;;;;;10.00;8.30;;;;;;;13.20;100.00;100553.31;6258812;28;20519;-93
2023/05/11 06:22:22;;;;;;;13.75;9.65;;;;;;;13.22;100.00;100556.59;6250236;28;20049;-94
2023/05/11 06:25:26;;;;;;;13.30;9.77;;;;;;;13.31;100.00;100552.38;6259278;28;20040;-93
2023/05/11 06:28:28;;;;;;;14.13;10.45;;;;;;;13.33;100.00;100556.47;6252710;28;20041;-93
2023/05/11 06:31:34;;;;;;;13.30;10.38;;;;;;;13.38;100.00;100547.44;6246059;28;20466;-94
2023/05/11 06:34:38;;;;;;;14.60;11.35;;;;;;;13.49;100.00;100548.13;6246526;28;20105;-93
2023/05/11 06:37:42;;;;;;;16.02;11.55;;;;;;;13.47;100.00;100542.22;6246270;28;20040;-93
2023/05/11 06:40:51;;;;;;;16.52;12.25;;;;;;;13.43;100.00;100546.06;6245410;28;20250;-93
2023/05/11 06:43:52;;;;;;;18.17;13.18;;;;;;;13.46;100.00;100550.97;6255859;28;20526;-95
2023/05/11 06:47:01;;;;;;;19.20;13.20;;;;;;;13.44;100.00;100550.31;6229473;28;20116;-94
2023/05/11 06:50:03;;;;;;;18.13;13.57;;;;;;;13.42;100.00;100549.63;6226261;28;20533;-95
2023/05/11 06:53:05;;;;;;;18.73;13.70;;;;;;;13.41;100.00;100549.75;6235522;28;20375;-94
2023/05/11 06:56:07;;;;;;;19.45;14.10;;;;;;;13.38;100.00;100543.06;6239697;28;20038;-94
2023/05/11 06:59:10;;;;;;;18.63;13.80;;;;;;;13.46;100.00;100552.75;6247320;28;20159;-94
2023/05/11 07:02:13;;;;;;;21.60;14.82;;;;;;;13.48;100.00;100554.25;6254142;28;20439;-94
2023/05/11 07:05:15;;;;;;;22.38;15.68;;;;;;;13.42;100.00;100557.44;6248649;28;20245;-95
2023/05/11 07:08:17;;;;;;;22.95;15.82;;;;;;;13.44;100.00;100555.53;6249678;28;20075;-94
2023/05/11 07:11:19;;;;;;;22.25;16.65;;;;;;;13.46;100.00;100550.16;6259768;28;20056;-95
2023/05/11 07:14:20;;;;;;;23.90;15.95;;;;;;;13.56;100.00;100558.75;6255263;28;20056;-95
2023/05/11 07:17:23;;;;;;;20.05;14.70;;;;;;;13.66;100.00;100548.34;6254294;28;20064;-94
2023/05/11 07:20:25;;;;;;;19.42;14.75;;;;;;;13.78;100.00;100555.84;6257478;28;20047;-94
2023/05/11 07:23:27;;;;;;;20.08;15.43;;;;;;;13.83;100.00;100545.00;6255112;28;20038;-95
2023/05/11 07:26:29;;;;;;;19.08;14.85;;;;;;;13.87;100.00;100556.78;6254465;28;20068;-94
2023/05/11 07:29:32;;;;;;;19.80;14.60;;;;;;;13.90;100.00;100551.28;6252686;28;20033;-95
2023/05/11 07:32:34;;;;;;;18.90;14.40;;;;;;;13.85;100.00;100553.50;6254679;28;20049;-95
2023/05/11 07:35:35;;;;;;;18.13;13.25;;;;;;;13.81;100.00;100549.53;6261116;28;20743;-93
2023/05/11 07:38:38;;;;;;;19.55;13.82;;;;;;;13.77;100.00;100549.00;6251509;28;20037;-95
2023/05/11 07:41:40;;;;;;;20.20;13.50;;;;;;;13.74;100.00;100551.91;6258145;28;20052;-95
2023/05/11 07:44:42;;;;;;;21.10;15.18;;;;;;;13.78;100.00;100553.22;6247637;28;20038;-94
2023/05/11 07:47:44;;;;;;;19.55;13.50;;;;;;;13.87;100.00;100554.19;6247619;28;20046;-94
2023/05/11 07:50:48;;;;;;;17.25;12.88;;;;;;;13.94;100.00;100555.25;6258202;28;20494;-93
2023/05/11 07:53:50;;;;;;;19.85;12.48;;;;;;;14.02;100.00;100553.72;6259487;28;20156;-94
2023/05/11 07:56:52;;;;;;;16.98;12.98;;;;;;;13.95;100.00;100549.06;6248354;28;20071;-95
2023/05/11 07:59:54;;;;;;;15.43;12.02;;;;;;;14.00;100.00;100556.47;6249614;28;20045;-94
2023/05/11 08:02:56;;;;;;;19.42;13.15;;;;;;;14.00;100.00;100556.47;6256362;28;20365;-94
2023/05/11 08:05:58;;;;;;;14.60;11.30;;;;;;;14.02;100.00;100551.94;6256428;28;20041;-94
2023/05/11 08:09:00;;;;;;;17.50;12.40;;;;;;;14.06;100.00;100555.06;6242785;28;20239;-95
2023/05/11 08:12:03;;;;;;;16.15;11.23;;;;;;;14.16;100.00;100558.44;6246087;28;20171;-94
2023/05/11 08:15:05;;;;;;;15.40;11.40;;;;;;;14.22;100.00;100555.28;6260824;28;20291;-93
2023/05/11 08:18:10;;;;;;;15.55;11.02;;;;;;;14.13;100.00;100556.13;6255627;28;20040;-94
2023/05/11 08:21:13;;;;;;;14.63;10.65;;;;;;;14.16;100.00;100550.63;6247714;28;20037;-93
2023/05/11 08:24:15;;;;;;;13.65;10.77;;;;;;;14.03;100.00;100557.97;6256155;28;20033;-94
2023/05/11 08:27:17;;;;;;;15.80;11.95;;;;;;;14.01;100.00;100558.09;6247122;28;20124;-94
2023/05/11 08:30:20;;;;;;;16.27;11.55;;;;;;;13.93;100.00;100556.19;6244449;28;20231;-96
2023/05/11 08:33:22;;;;;;;13.68;10.60;;;;;;;14.01;100.00;100568.50;6232981;28;20132;-94
2023/05/11 08:36:30;;;;;;;14.93;11.13;;;;;;;13.92;100.00;100564.16;6258638;28;20045;-95
2023/05/11 08:39:33;;;;;;;14.25;11.40;;;;;;;13.77;100.00;100564.63;6258197;28;20550;-95
2023/05/11 08:42:44;;;;;;;16.75;12.05;;;;;;;13.72;100.00;100571.22;6256055;28;20044;-94
2023/05/11 08:45:55;;;;;;;15.00;11.32;;;;;;;13.72;100.00;100566.00;6224076;28;20054;-95
2023/05/11 08:48:57;;;;;;;13.38;10.25;;;;;;;13.71;100.00;100569.56;6235688;28;20084;-95
2023/05/11 08:52:04;;;;;;;14.50;11.60;;;;;;;13.82;100.00;100574.59;6251903;28;20041;-95
2023/05/11 08:55:09;;;;;;;14.98;10.45;;;;;;;13.79;100.00;100567.09;6256010;28;20537;-95
2023/05/11 08:58:13;;;;;;;12.43;9.95;;;;;;;13.82;100.00;100582.41;6239202;28;20037;-94
2023/05/11 09:01:18;;;;;;;10.35;8.60;;;;;;;13.78;100.00;100581.84;6252442;28;20457;-95
2023/05/11 09:04:21;;;;;;;11.40;8.88;;;;;;;13.70;100.00;100575.72;6252427;28;20048;-94
2023/05/11 09:07:26;;;;;;;12.05;8.30;;;;;;;13.55;100.00;100578.75;6235514;28;20037;-95
2023/05/11 09:10:28;;;;;;;11.45;8.55;;;;;;;13.61;100.00;100577.38;6251482;28;20107;-96
2023/05/11 09:13:34;;;;;;;12.43;9.05;;;;;;;13.71;100.00;100577.34;6247686;28;20045;-96
2023/05/11 09:16:36;;;;;;;11.88;8.80;;;;;;;13.70;100.00;100579.16;6260075;28;20488;-95
2023/05/11 09:19:58;;;;;;;8.18;7.35;;;;;;;13.90;100.00;100573.91;6253895;28;20069;-96
2023/05/11 09:23:00;;;;;;;10.05;7.00;;;;;;;13.92;100.00;100571.97;6250609;28;20052;-94
2023/05/11 09:26:05;;;;;;;9.57;7.43;;;;;;;13.76;100.00;100573.41;6249770;28;20052;-96
2023/05/11 09:29:08;;;;;;;8.43;7.38;;;;;;;13.69;100.00;100576.66;6241758;28;20049;-96
2023/05/11 09:32:10;;;;;;;9.77;6.57;;;;;;;13.73;100.00;100578.03;6256372;28;20514;-96
2023/05/11 09:35:30;;;;;;;9.40;7.40;;;;;;;13.77;100.00;100577.63;6236322;28;20048;-96
2023/05/11 09:38:33;;;;;;;9.77;7.15;;;;;;;13.91;100.00;100583.34;6261291;28;20558;-95
2023/05/11 09:41:35;;;;;;;8.98;7.13;;;;;;;14.06;100.00;100575.88;6257452;28;20053;-96
2023/05/11 09:44:40;;;;;;;11.02;7.22;;;;;;;14.03;100.00;100565.78;6273425;28;20522;-96
2023/05/11 09:47:43;;;;;;;10.50;6.85;;;;;;;14.06;100.00;100575.88;6227101;28;20465;-95
2023/05/11 09:50:57;;;;;;;9.95;6.78;;;;;;;13.98;100.00;100572.22;6266576;28;20037;-95
2023/05/11 09:54:01;;;;;;;8.95;6.90;;;;;;;14.07;100.00;100573.16;6267395;28;20044;-95
2023/05/11 09:57:03;;;;;;;7.35;6.13;;;;;;;14.19;100.00;100573.81;6265192;28;20084;-95
2023/05/11 10:00:13;;;;;;;8.38;6.50;;;;;;;14.25;100.00;100577.59;6268894;28;20530;-96
2023/05/11 10:03:16;;;;;;;7.97;6.90;;;;;;;14.39;100.00;100562.31;6252595;28;20048;-96
2023/05/11 10:06:18;;;;;;;8.00;6.43;;;;;;;14.57;100.00;100558.97;6263016;28;20040;-95
2023/05/11 10:09:27;;;;;;;9.20;6.30;;;;;;;14.61;100.00;100557.72;6257202;28;20059;-96
2023/05/11 10:12:32;;;;;;;7.18;6.38;;;;;;;14.52;100.00;100558.56;6260095;28;20084;-95
2023/05/11 10:15:35;;;;;;;7.53;6.28;;;;;;;14.37;100.00;100559.03;6243438;28;20067;-95
2023/05/11 10:18:39;;;;;;;6.93;5.22;;;;;;;14.27;100.00;100550.47;6258979;28;20045;-96
2023/05/11 10:21:41;;;;;;;6.80;4.68;;;;;;;14.38;100.00;100554.66;6262759;28;20049;-96
2023/05/11 10:24:43;;;;;;;5.88;4.97;;;;;;;14.50;100.00;100555.28;6241178;28;20415;-95
2023/05/11 10:27:47;;;;;;;6.50;4.63;;;;;;;14.49;100.00;100554.47;6246414;28;20037;-95
2023/05/11 10:30:51;;;;;;;5.38;4.32;;;;;;;14.20;100.00;100546.78;6272802;28;20065;-93
2023/05/11 10:33:53;;;;;;;5.80;4.68;;;;;;;14.18;100.00;100553.91;6256291;28;20091;-96
2023/05/11 10:36:59;;;;;;;5.22;4.70;;;;;;;14.28;100.00;100553.88;6257787;28;20126;-96
2023/05/11 10:40:01;;;;;;;5.72;4.40;;;;;;;14.29;100.00;100556.34;6259357;28;20090;-95
2023/05/11 10:43:42;;;;;;;5.47;4.70;;;;;;;14.15;100.00;100556.81;6255837;28;20408;-96
2023/05/11 10:47:09;;;;;;;5.20;4.70;;;;;;;13.93;100.00;100555.38;6262916;28;20084;-96
2023/05/11 10:50:59;;;;;;;7.00;4.18;;;;;;;13.93;100.00;100566.63;6267683;28;20047;-92
2023/05/11 10:54:13;;;;;;;4.20;3.78;;;;;;;13.83;100.00;100558.03;6231519;28;20057;-94
2023/05/11 10:57:52;;;;;;;5.97;3.90;;;;;;;13.77;100.00;100561.19;6231129;28;20508;-92
2023/05/11 11:01:12;;;;;;;5.22;4.22;;;;;;;13.67;100.00;100556.03;6234835;28;20037;-94
2023/05/11 11:04:16;;;;;;;4.88;4.38;;;;;;;13.63;100.00;100562.44;6234476;28;20115;-95
2023/05/11 11:07:18;;;;;;;5.18;4.18;;;;;;;13.67;100.00;100574.22;6222545;28;20877;-94
2023/05/11 11:10:50;;;;;;;5.28;4.50;;;;;;;13.66;100.00;100566.56;6217140;28;20054;-95
2023/05/11 11:14:02;;;;;;;10.32;4.80;;;;;;;13.66;100.00;100566.56;6234565;28;20047;-94
2023/05/11 11:17:19;;;;;;;5.72;4.82;;;;;;;13.64;100.00;100564.09;6235331;28;20045;-95
2023/05/11 11:20:51;;;;;;;7.50;4.70;;;;;;;13.76;100.00;100567.34;6236040;28;20112;-94
2023/05/11 11:23:53;;;;;;;6.55;4.95;;;;;;;13.73;100.00;100565.84;6212103;28;20065;-95
2023/05/11 11:26:55;;;;;;;6.85;5.07;;;;;;;13.72;100.00;100579.81;6220248;28;20080;-96
2023/05/11 11:30:17;;;;;;;7.75;5.10;;;;;;;13.74;100.00;100571.91;6231605;28;20056;-96
2023/05/11 11:33:19;;;;;;;8.00;5.70;;;;;;;13.77;100.00;100571.59;6257216;28;20090;-96
2023/05/11 11:37:02;;;;;;;5.97;4.88;;;;;;;13.76;100.00;100573.41;6243606;28;20045;-95
2023/05/11 11:40:06;;;;;;;7.47;5.05;;;;;;;13.83;100.00;100580.63;6258295;28;20354;-95
2023/05/11 11:43:43;;;;;;;7.40;5.47;;;;;;;13.82;100.00;100581.59;6256841;28;20037;-96
2023/05/11 11:46:47;;;;;;;8.25;5.57;;;;;;;13.75;100.00;100582.13;6242293;28;20042;-96
2023/05/11 11:49:52;;;;;;;8.32;6.40;;;;;;;13.84;100.00;100588.28;6259687;28;20164;-95
2023/05/11 11:52:54;;;;;;;9.95;5.78;;;;;;;14.25;100.00;100585.41;6258121;28;20399;-96
2023/05/11 11:55:56;;;;;;;7.28;5.03;;;;;;;14.64;100.00;100581.69;6252429;28;20037;-95
2023/05/11 11:58:59;;;;;;;10.60;4.22;;;;;;;14.68;100.00;100576.97;6237983;28;20503;-95
2023/05/11 12:02:04;;;;;;;6.57;3.65;;;;;;;14.68;100.00;100570.97;6253598;28;20044;-96
2023/05/11 12:05:21;;;;;;;5.82;3.70;;;;;;;14.76;100.00;100569.28;6256545;28;20037;-96
2023/05/11 12:08:27;;;;;;;9.40;5.25;;;;;;;14.92;100.00;100562.59;6258619;28;20072;-94
2023/05/11 12:11:30;;;;;;;8.13;5.93;;;;;;;14.93;100.00;100564.22;6261468;28;20051;-94
2023/05/11 12:14:33;;;;;;;8.77;5.07;;;;;;;14.75;100.00;100554.59;6260204;28;20500;-95
2023/05/11 12:17:38;;;;;;;9.93;5.38;;;;;;;14.62;100.00;100559.34;6253265;28;20410;-96
2023/05/11 12:20:40;;;;;;;8.40;5.10;;;;;;;14.57;100.00;100558.97;6257776;28;20127;-95
2023/05/11 12:23:51;;;;;;;10.00;6.00;;;;;;;14.46;100.00;100561.72;6258441;28;20033;-96
2023/05/11 12:26:56;;;;;;;10.63;6.93;;;;;;;14.24;100.00;100552.53;6258730;28;20069;-96
2023/05/11 12:29:59;;;;;;;7.70;5.50;;;;;;;14.15;100.00;100559.41;6259547;28;20037;-94
2023/05/11 12:33:03;;;;;;;9.23;5.47;;;;;;;14.09;100.00;100565.22;6250788;28;20094;-95
2023/05/11 12:36:06;;;;;;;10.05;5.50;;;;;;;14.21;100.00;100558.88;6251287;28;20075;-96
2023/05/11 12:39:15;;;;;;;8.65;5.65;;;;;;;14.21;100.00;100551.88;6251537;28;20049;-94
2023/05/11 12:42:17;;;;;;;10.25;5.70;;;;;;;14.11;100.00;100553.69;6260854;28;20037;-93
2023/05/11 12:45:21;;;;;;;10.07;6.18;;;;;;;14.09;100.00;100552.19;6247334;28;20574;-95
2023/05/11 12:48:23;;;;;;;10.65;6.00;;;;;;;14.08;100.00;100537.53;6242083;28;20076;-94
2023/05/11 12:51:45;;;;;;;10.35;6.07;;;;;;;14.03;100.00;100548.38;6260408;28;20099;-94
2023/05/11 12:54:59;;;;;;;9.88;5.53;;;;;;;13.98;100.00;100548.78;6257890;28;20076;-95
2023/05/11 12:58:17;;;;;;;9.68;5.43;;;;;;;14.13;100.00;100543.13;6237977;28;20107;-94
2023/05/11 13:01:23;;;;;;;9.63;5.88;;;;;;;14.18;100.00;100549.53;6262688;28;20517;-94
2023/05/11 13:04:32;;;;;;;12.38;6.07;;;;;;;14.14;100.00;100543.00;6254523;28;20144;-95
2023/05/11 13:07:34;;;;;;;10.93;6.10;;;;;;;14.15;100.00;100549.00;6228544;28;20474;-95
2023/05/11 13:10:36;;;;;;;9.68;5.82;;;;;;;14.14;100.00;100543.00;6255306;28;20135;-95
2023/05/11 13:13:39;;;;;;;9.52;5.88;;;;;;;14.33;100.00;100552.47;6248020;28;20151;-94
2023/05/11 13:16:52;;;;;;;9.93;5.75;;;;;;;14.56;100.00;100549.53;6259211;28;20049;-94
2023/05/11 13:19:55;;;;;;;10.93;6.60;;;;;;;14.57;100.00;100544.16;6249911;28;20037;-95
2023/05/11 13:23:20;;;;;;;9.32;5.60;;;;;;;14.54;100.00;100538.44;6249676;28;20065;-94
2023/05/11 13:26:28;;;;;;;10.98;6.90;;;;;;;14.70;100.00;100537.75;6232366;28;20594;-94
2023/05/11 13:29:30;;;;;;;10.82;6.63;;;;;;;14.81;100.00;100527.94;6252752;28;20041;-94
2023/05/11 13:32:32;;;;;;;9.25;6.47;;;;;;;15.08;100.00;100523.63;6256042;28;20048;-95
2023/05/11 13:35:38;;;;;;;9.07;6.40;;;;;;;15.32;100.00;100527.38;6249794;28;20396;-86
2023/05/11 13:38:40;;;;;;;11.55;6.63;;;;;;;15.41;100.00;100518.66;6243189;28;20539;-96
2023/05/11 13:41:42;;;;;;;10.20;7.53;;;;;;;15.31;100.00;100518.75;6258525;28;20090;-94
2023/05/11 13:44:44;;;;;;;9.95;6.75;;;;;;;15.22;100.00;100512.66;6251248;28;20040;-94
2023/05/11 13:47:47;;;;;;;9.48;7.40;;;;;;;15.15;100.00;100505.56;6259509;28;20045;-95
2023/05/11 13:50:48;;;;;;;11.93;8.68;;;;;;;15.11;100.00;100509.47;6252484;28;20439;-94
2023/05/11 13:53:51;;;;;;;11.52;8.43;;;;;;;15.08;100.00;100508.00;6256863;28;20065;-93
2023/05/11 13:56:53;;;;;;;9.02;7.55;;;;;;;15.02;100.00;100511.19;6261656;28;20499;-95
2023/05/11 13:59:55;;;;;;;8.98;7.28;;;;;;;14.98;100.00;100504.63;6264691;28;20052;-94
2023/05/11 14:02:57;;;;;;;7.55;6.32;;;;;;;15.08;100.00;100500.16;6253623;28;20037;-93
2023/05/11 14:05:59;;;;;;;9.80;6.85;;;;;;;15.34;100.00;100496.75;6253424;28;20120;-93
2023/05/11 14:09:01;;;;;;;9.02;7.47;;;;;;;15.62;100.00;100500.84;6245230;28;20086;-93